sensor_id;sensor_type;location;lat;lon;timestamp;temperature;humidity
6843;DHT22;3460;52.028;8.916;2023-02-28T00:00:10;-1.50;99.90
6843;DHT22;3460;52.028;8.916;2023-02-28T00:02:38;-1.50;99.90
6843;DHT22;3460;52.028;8.916;2023-02-28T00:05:07;-1.50;99.90
6843;DHT22;3460;52.028;8.916;2023-02-28T00:07:34;-1.50;99.90
6843;DHT22;3460;52.028;8.916;2023-02-28T00:10:02;-1.50;99.90
6843;DHT22;3460;52.028;8.916;2023-02-28T00:12:30;-1.50;99.90
6843;DHT22;3460;52.028;8.916;2023-02-28T00:14:57;-1.70;99.90
6843;DHT22;3460;52.028;8.916;2023-02-28T00:17:24;-1.40;99.90
6843;DHT22;3460;52.028;8.916;2023-02-28T00:19:51;-1.50;99.90
6843;DHT22;3460;52.028;8.916;2023-02-28T00:22:20;-1.50;99.90
6843;DHT22;3460;52.028;8.916;2023-02-28T00:24:47;-1.50;99.90
6843;DHT22;3460;52.028;8.916;2023-02-28T00:27:14;-1.50;99.90
6843;DHT22;3460;52.028;8.916;2023-02-28T00:29:42;-1.40;99.90
6843;DHT22;3460;52.028;8.916;2023-02-28T00:32:09;-1.30;99.90
6843;DHT22;3460;52.028;8.916;2023-02-28T00:34:36;-1.30;99.90
6843;DHT22;3460;52.028;8.916;2023-02-28T00:37:04;-1.30;99.90
6843;DHT22;3460;52.028;8.916;2023-02-28T00:39:33;-1.30;99.90
6843;DHT22;3460;52.028;8.916;2023-02-28T00:42:00;-1.40;99.90
6843;DHT22;3460;52.028;8.916;2023-02-28T00:44:28;-1.40;99.90
6843;DHT22;3460;52.028;8.916;2023-02-28T00:46:56;-1.40;99.90
6843;DHT22;3460;52.028;8.916;2023-02-28T00:49:23;-1.40;99.90
6843;DHT22;3460;52.028;8.916;2023-02-28T00:51:50;-1.40;99.90
6843;DHT22;3460;52.028;8.916;2023-02-28T00:54:17;-1.40;99.90
6843;DHT22;3460;52.028;8.916;2023-02-28T00:56:44;-1.40;99.90
6843;DHT22;3460;52.028;8.916;2023-02-28T00:59:12;-1.50;99.90
6843;DHT22;3460;52.028;8.916;2023-02-28T01:01:39;-1.50;99.90
6843;DHT22;3460;52.028;8.916;2023-02-28T01:04:07;-1.50;99.90
6843;DHT22;3460;52.028;8.916;2023-02-28T01:06:34;-1.50;99.90
6843;DHT22;3460;52.028;8.916;2023-02-28T01:09:03;-1.60;99.90
6843;DHT22;3460;52.028;8.916;2023-02-28T01:11:30;-1.60;99.90
6843;DHT22;3460;52.028;8.916;2023-02-28T01:13:58;-1.50;99.90
6843;DHT22;3460;52.028;8.916;2023-02-28T01:16:25;-1.50;99.90
6843;DHT22;3460;52.028;8.916;2023-02-28T01:18:52;-1.50;99.90
6843;DHT22;3460;52.028;8.916;2023-02-28T01:21:21;-1.50;99.90
6843;DHT22;3460;52.028;8.916;2023-02-28T01:23:49;-1.60;99.90
6843;DHT22;3460;52.028;8.916;2023-02-28T01:26:17;-1.60;99.90
6843;DHT22;3460;52.028;8.916;2023-02-28T01:28:44;-1.70;99.90
6843;DHT22;3460;52.028;8.916;2023-02-28T01:31:11;-1.70;99.90
6843;DHT22;3460;52.028;8.916;2023-02-28T01:33:39;-1.80;99.90
6843;DHT22;3460;52.028;8.916;2023-02-28T01:36:08;-1.80;99.90
6843;DHT22;3460;52.028;8.916;2023-02-28T01:38:37;-1.80;99.90
6843;DHT22;3460;52.028;8.916;2023-02-28T01:41:05;-1.90;99.90
6843;DHT22;3460;52.028;8.916;2023-02-28T01:43:50;-1.90;99.90
6843;DHT22;3460;52.028;8.916;2023-02-28T01:46:18;-1.70;99.90
6843;DHT22;3460;52.028;8.916;2023-02-28T01:48:46;-1.80;99.90
6843;DHT22;3460;52.028;8.916;2023-02-28T01:51:17;-1.80;99.90
6843;DHT22;3460;52.028;8.916;2023-02-28T01:53:51;-1.80;99.90
6843;DHT22;3460;52.028;8.916;2023-02-28T01:56:22;-1.90;99.90
6843;DHT22;3460;52.028;8.916;2023-02-28T01:58:51;-1.80;99.90
6843;DHT22;3460;52.028;8.916;2023-02-28T02:01:19;-1.80;99.90
6843;DHT22;3460;52.028;8.916;2023-02-28T02:03:48;-1.90;99.90
6843;DHT22;3460;52.028;8.916;2023-02-28T02:06:21;-1.90;99.90
6843;DHT22;3460;52.028;8.916;2023-02-28T02:08:49;-1.90;99.90
6843;DHT22;3460;52.028;8.916;2023-02-28T02:11:19;-2.00;99.90
6843;DHT22;3460;52.028;8.916;2023-02-28T02:17:02;-2.10;99.90
6843;DHT22;3460;52.028;8.916;2023-02-28T02:23:21;-2.10;99.90
6843;DHT22;3460;52.028;8.916;2023-02-28T02:25:57;-2.20;99.90
6843;DHT22;3460;52.028;8.916;2023-02-28T02:28:52;-2.30;99.90
6843;DHT22;3460;52.028;8.916;2023-02-28T02:31:38;-2.30;99.90
6843;DHT22;3460;52.028;8.916;2023-02-28T02:34:39;-2.40;99.90
6843;DHT22;3460;52.028;8.916;2023-02-28T02:37:14;-2.30;99.90
6843;DHT22;3460;52.028;8.916;2023-02-28T02:39:48;-2.40;99.90
6843;DHT22;3460;52.028;8.916;2023-02-28T02:42:23;-2.40;99.90
6843;DHT22;3460;52.028;8.916;2023-02-28T02:44:57;-2.50;99.90
6843;DHT22;3460;52.028;8.916;2023-02-28T02:47:28;-2.50;99.90
6843;DHT22;3460;52.028;8.916;2023-02-28T02:49:59;-2.50;99.90
6843;DHT22;3460;52.028;8.916;2023-02-28T02:52:33;-2.40;99.90
6843;DHT22;3460;52.028;8.916;2023-02-28T02:55:02;-2.50;99.90
6843;DHT22;3460;52.028;8.916;2023-02-28T02:57:33;-2.60;99.90
6843;DHT22;3460;52.028;8.916;2023-02-28T03:00:04;-2.60;99.90
6843;DHT22;3460;52.028;8.916;2023-02-28T03:02:34;-2.60;99.90
6843;DHT22;3460;52.028;8.916;2023-02-28T03:05:08;-2.60;99.90
6843;DHT22;3460;52.028;8.916;2023-02-28T03:07:35;-2.60;99.90
6843;DHT22;3460;52.028;8.916;2023-02-28T03:10:02;-2.70;99.90
6843;DHT22;3460;52.028;8.916;2023-02-28T03:12:35;-2.60;99.90
6843;DHT22;3460;52.028;8.916;2023-02-28T03:15:13;-2.50;99.90
6843;DHT22;3460;52.028;8.916;2023-02-28T03:17:57;-2.50;99.90
6843;DHT22;3460;52.028;8.916;2023-02-28T03:20:35;-2.60;99.90
6843;DHT22;3460;52.028;8.916;2023-02-28T03:23:15;-2.70;99.90
6843;DHT22;3460;52.028;8.916;2023-02-28T03:25:54;-2.80;99.90
6843;DHT22;3460;52.028;8.916;2023-02-28T03:28:31;-2.90;99.90
6843;DHT22;3460;52.028;8.916;2023-02-28T03:31:02;-2.90;99.90
6843;DHT22;3460;52.028;8.916;2023-02-28T03:33:33;-2.90;99.90
6843;DHT22;3460;52.028;8.916;2023-02-28T03:36:06;-3.00;99.90
6843;DHT22;3460;52.028;8.916;2023-02-28T03:38:37;-3.00;99.90
6843;DHT22;3460;52.028;8.916;2023-02-28T03:41:08;-3.10;99.90
6843;DHT22;3460;52.028;8.916;2023-02-28T03:43:39;-3.10;99.90
6843;DHT22;3460;52.028;8.916;2023-02-28T03:46:10;-3.10;99.90
6843;DHT22;3460;52.028;8.916;2023-02-28T03:48:42;-3.10;99.90
6843;DHT22;3460;52.028;8.916;2023-02-28T03:51:15;-3.20;99.90
6843;DHT22;3460;52.028;8.916;2023-02-28T03:53:46;-3.20;99.90
6843;DHT22;3460;52.028;8.916;2023-02-28T03:56:17;-3.20;99.90
6843;DHT22;3460;52.028;8.916;2023-02-28T03:58:48;-3.30;99.90
6843;DHT22;3460;52.028;8.916;2023-02-28T04:01:21;-3.30;99.90
6843;DHT22;3460;52.028;8.916;2023-02-28T04:03:50;-3.20;99.90
6843;DHT22;3460;52.028;8.916;2023-02-28T04:06:20;-3.30;99.90
6843;DHT22;3460;52.028;8.916;2023-02-28T04:08:48;-3.30;99.90
6843;DHT22;3460;52.028;8.916;2023-02-28T04:11:20;-3.30;99.90
6843;DHT22;3460;52.028;8.916;2023-02-28T04:13:47;-3.40;99.90
6843;DHT22;3460;52.028;8.916;2023-02-28T04:16:15;-3.40;99.90
6843;DHT22;3460;52.028;8.916;2023-02-28T04:18:42;-3.40;99.90
6843;DHT22;3460;52.028;8.916;2023-02-28T04:21:10;-3.50;99.90
6843;DHT22;3460;52.028;8.916;2023-02-28T04:23:38;-3.50;99.90
6843;DHT22;3460;52.028;8.916;2023-02-28T04:26:05;-3.50;99.90
6843;DHT22;3460;52.028;8.916;2023-02-28T04:28:32;-3.50;99.90
6843;DHT22;3460;52.028;8.916;2023-02-28T04:31:01;-3.60;99.90
6843;DHT22;3460;52.028;8.916;2023-02-28T04:33:28;-3.60;99.90
6843;DHT22;3460;52.028;8.916;2023-02-28T04:35:59;-3.60;99.90
6843;DHT22;3460;52.028;8.916;2023-02-28T04:38:26;-3.60;99.90
6843;DHT22;3460;52.028;8.916;2023-02-28T04:40:57;-3.60;99.90
6843;DHT22;3460;52.028;8.916;2023-02-28T04:43:23;-3.60;99.90
6843;DHT22;3460;52.028;8.916;2023-02-28T04:45:50;-3.60;99.90
6843;DHT22;3460;52.028;8.916;2023-02-28T04:48:17;-3.60;99.90
6843;DHT22;3460;52.028;8.916;2023-02-28T04:50:44;-3.60;99.90
6843;DHT22;3460;52.028;8.916;2023-02-28T04:53:11;-3.70;99.90
6843;DHT22;3460;52.028;8.916;2023-02-28T04:55:37;-3.70;99.90
6843;DHT22;3460;52.028;8.916;2023-02-28T04:58:07;-3.70;99.90
6843;DHT22;3460;52.028;8.916;2023-02-28T05:00:34;-3.80;99.90
6843;DHT22;3460;52.028;8.916;2023-02-28T05:03:01;-3.80;99.90
6843;DHT22;3460;52.028;8.916;2023-02-28T05:05:28;-3.70;99.90
6843;DHT22;3460;52.028;8.916;2023-02-28T05:07:55;-3.70;99.90
6843;DHT22;3460;52.028;8.916;2023-02-28T05:10:22;-3.60;99.90
6843;DHT22;3460;52.028;8.916;2023-02-28T05:12:49;-3.60;99.90
6843;DHT22;3460;52.028;8.916;2023-02-28T05:15:17;-3.50;99.90
6843;DHT22;3460;52.028;8.916;2023-02-28T05:17:44;-3.40;99.90
6843;DHT22;3460;52.028;8.916;2023-02-28T05:20:11;-3.40;99.90
6843;DHT22;3460;52.028;8.916;2023-02-28T05:22:39;-3.50;99.90
6843;DHT22;3460;52.028;8.916;2023-02-28T05:25:06;-3.60;99.90
6843;DHT22;3460;52.028;8.916;2023-02-28T05:27:33;-3.60;99.90
6843;DHT22;3460;52.028;8.916;2023-02-28T05:30:00;-3.70;99.90
6843;DHT22;3460;52.028;8.916;2023-02-28T05:32:30;-3.70;99.90
6843;DHT22;3460;52.028;8.916;2023-02-28T05:34:57;-3.80;99.90
6843;DHT22;3460;52.028;8.916;2023-02-28T05:37:23;-3.80;99.90
6843;DHT22;3460;52.028;8.916;2023-02-28T05:39:50;-3.90;99.90
6843;DHT22;3460;52.028;8.916;2023-02-28T05:42:17;-3.90;99.90
6843;DHT22;3460;52.028;8.916;2023-02-28T05:44:44;-4.00;99.90
6843;DHT22;3460;52.028;8.916;2023-02-28T05:47:11;-3.90;99.90
6843;DHT22;3460;52.028;8.916;2023-02-28T05:49:42;-4.00;99.90
6843;DHT22;3460;52.028;8.916;2023-02-28T05:52:09;-4.00;99.90
6843;DHT22;3460;52.028;8.916;2023-02-28T05:54:36;-4.00;99.90
6843;DHT22;3460;52.028;8.916;2023-02-28T05:57:03;-3.90;99.90
6843;DHT22;3460;52.028;8.916;2023-02-28T05:59:29;-4.00;99.90
6843;DHT22;3460;52.028;8.916;2023-02-28T06:01:56;-4.10;99.90
6843;DHT22;3460;52.028;8.916;2023-02-28T06:04:23;-4.10;99.90
6843;DHT22;3460;52.028;8.916;2023-02-28T06:06:51;-4.10;99.90
6843;DHT22;3460;52.028;8.916;2023-02-28T06:09:19;-4.10;99.90
6843;DHT22;3460;52.028;8.916;2023-02-28T06:11:45;-4.00;99.90
6843;DHT22;3460;52.028;8.916;2023-02-28T06:14:15;-4.00;99.90
6843;DHT22;3460;52.028;8.916;2023-02-28T06:16:42;-4.00;99.90
6843;DHT22;3460;52.028;8.916;2023-02-28T06:19:09;-4.10;99.90
6843;DHT22;3460;52.028;8.916;2023-02-28T06:21:37;-4.10;99.90
6843;DHT22;3460;52.028;8.916;2023-02-28T06:24:06;-4.10;99.90
6843;DHT22;3460;52.028;8.916;2023-02-28T06:26:33;-4.10;99.90
6843;DHT22;3460;52.028;8.916;2023-02-28T06:29:00;-4.10;99.90
6843;DHT22;3460;52.028;8.916;2023-02-28T06:31:27;-4.10;99.90
6843;DHT22;3460;52.028;8.916;2023-02-28T06:33:55;-4.10;99.90
6843;DHT22;3460;52.028;8.916;2023-02-28T06:36:22;-4.00;99.90
6843;DHT22;3460;52.028;8.916;2023-02-28T06:38:49;-4.00;99.90
6843;DHT22;3460;52.028;8.916;2023-02-28T06:41:22;-3.90;99.90
6843;DHT22;3460;52.028;8.916;2023-02-28T06:43:49;-3.90;99.90
6843;DHT22;3460;52.028;8.916;2023-02-28T06:46:15;-3.90;99.90
6843;DHT22;3460;52.028;8.916;2023-02-28T06:48:43;-3.90;99.90
6843;DHT22;3460;52.028;8.916;2023-02-28T06:51:12;-3.90;99.90
6843;DHT22;3460;52.028;8.916;2023-02-28T06:53:39;-3.90;99.90
6843;DHT22;3460;52.028;8.916;2023-02-28T06:56:08;-3.70;99.90
6843;DHT22;3460;52.028;8.916;2023-02-28T06:58:37;-3.60;99.90
6843;DHT22;3460;52.028;8.916;2023-02-28T07:01:05;-3.60;99.90
6843;DHT22;3460;52.028;8.916;2023-02-28T07:03:32;-3.60;99.90
6843;DHT22;3460;52.028;8.916;2023-02-28T07:05:59;-3.60;99.90
6843;DHT22;3460;52.028;8.916;2023-02-28T07:08:26;-3.60;99.90
6843;DHT22;3460;52.028;8.916;2023-02-28T07:10:53;-3.60;99.90
6843;DHT22;3460;52.028;8.916;2023-02-28T07:13:21;-3.60;99.90
6843;DHT22;3460;52.028;8.916;2023-02-28T07:15:55;-3.60;99.90
6843;DHT22;3460;52.028;8.916;2023-02-28T07:18:22;-3.60;99.90
6843;DHT22;3460;52.028;8.916;2023-02-28T07:20:49;-3.50;99.90
6843;DHT22;3460;52.028;8.916;2023-02-28T07:23:16;-3.40;99.90
6843;DHT22;3460;52.028;8.916;2023-02-28T07:25:43;-3.30;99.90
6843;DHT22;3460;52.028;8.916;2023-02-28T07:28:11;-3.20;99.90
6843;DHT22;3460;52.028;8.916;2023-02-28T07:30:38;-3.10;99.90
6843;DHT22;3460;52.028;8.916;2023-02-28T07:33:06;-3.10;99.90
6843;DHT22;3460;52.028;8.916;2023-02-28T07:35:33;-3.00;99.90
6843;DHT22;3460;52.028;8.916;2023-02-28T07:38:00;-3.00;99.90
6843;DHT22;3460;52.028;8.916;2023-02-28T07:40:28;-2.90;99.90
6843;DHT22;3460;52.028;8.916;2023-02-28T07:42:55;-2.80;99.90
6843;DHT22;3460;52.028;8.916;2023-02-28T07:45:22;-2.70;99.90
6843;DHT22;3460;52.028;8.916;2023-02-28T07:47:49;-2.60;99.90
6843;DHT22;3460;52.028;8.916;2023-02-28T07:50:18;-2.50;99.90
6843;DHT22;3460;52.028;8.916;2023-02-28T07:52:45;-2.40;99.90
6843;DHT22;3460;52.028;8.916;2023-02-28T07:55:12;-2.30;99.90
6843;DHT22;3460;52.028;8.916;2023-02-28T07:57:39;-2.20;99.90
6843;DHT22;3460;52.028;8.916;2023-02-28T08:00:09;-2.10;99.90
6843;DHT22;3460;52.028;8.916;2023-02-28T08:02:38;-1.90;99.90
6843;DHT22;3460;52.028;8.916;2023-02-28T08:05:05;-1.80;99.90
6843;DHT22;3460;52.028;8.916;2023-02-28T08:07:34;-1.80;99.90
6843;DHT22;3460;52.028;8.916;2023-02-28T08:10:00;-1.60;99.90
6843;DHT22;3460;52.028;8.916;2023-02-28T08:12:27;-1.60;99.90
6843;DHT22;3460;52.028;8.916;2023-02-28T08:14:54;-1.50;99.90
6843;DHT22;3460;52.028;8.916;2023-02-28T08:17:21;-1.30;99.90
6843;DHT22;3460;52.028;8.916;2023-02-28T08:19:48;-1.10;99.90
6843;DHT22;3460;52.028;8.916;2023-02-28T08:22:14;-1.00;99.90
6843;DHT22;3460;52.028;8.916;2023-02-28T08:24:43;-0.80;99.90
6843;DHT22;3460;52.028;8.916;2023-02-28T08:27:10;-0.70;99.90
6843;DHT22;3460;52.028;8.916;2023-02-28T08:29:37;-0.40;99.90
6843;DHT22;3460;52.028;8.916;2023-02-28T08:32:04;-0.20;99.90
6843;DHT22;3460;52.028;8.916;2023-02-28T08:34:31;0.10;99.90
6843;DHT22;3460;52.028;8.916;2023-02-28T08:36:58;0.50;99.90
6843;DHT22;3460;52.028;8.916;2023-02-28T08:39:25;0.50;99.90
6843;DHT22;3460;52.028;8.916;2023-02-28T08:41:54;0.60;99.90
6843;DHT22;3460;52.028;8.916;2023-02-28T08:44:20;0.90;99.90
6843;DHT22;3460;52.028;8.916;2023-02-28T08:46:47;0.80;99.90
6843;DHT22;3460;52.028;8.916;2023-02-28T08:49:14;0.80;99.90
6843;DHT22;3460;52.028;8.916;2023-02-28T08:51:41;0.80;99.90
6843;DHT22;3460;52.028;8.916;2023-02-28T08:54:08;1.00;99.90
6843;DHT22;3460;52.028;8.916;2023-02-28T08:56:38;0.90;99.90
6843;DHT22;3460;52.028;8.916;2023-02-28T08:59:08;0.90;99.90
6843;DHT22;3460;52.028;8.916;2023-02-28T09:01:35;0.90;99.90
6843;DHT22;3460;52.028;8.916;2023-02-28T09:04:02;0.90;99.90
6843;DHT22;3460;52.028;8.916;2023-02-28T09:06:29;0.90;99.90
6843;DHT22;3460;52.028;8.916;2023-02-28T09:08:57;0.90;99.90
6843;DHT22;3460;52.028;8.916;2023-02-28T09:11:25;0.90;99.90
6843;DHT22;3460;52.028;8.916;2023-02-28T09:13:52;1.20;99.90
6843;DHT22;3460;52.028;8.916;2023-02-28T09:16:22;1.30;99.90
6843;DHT22;3460;52.028;8.916;2023-02-28T09:18:49;1.40;99.90
6843;DHT22;3460;52.028;8.916;2023-02-28T09:21:17;1.60;99.90
6843;DHT22;3460;52.028;8.916;2023-02-28T09:23:46;1.90;99.90
6843;DHT22;3460;52.028;8.916;2023-02-28T09:26:14;2.20;99.90
6843;DHT22;3460;52.028;8.916;2023-02-28T09:28:40;2.50;99.90
6843;DHT22;3460;52.028;8.916;2023-02-28T09:31:12;2.70;99.90
6843;DHT22;3460;52.028;8.916;2023-02-28T09:33:40;2.90;99.90
6843;DHT22;3460;52.028;8.916;2023-02-28T09:36:08;3.20;99.90
6843;DHT22;3460;52.028;8.916;2023-02-28T09:38:35;3.40;99.90
6843;DHT22;3460;52.028;8.916;2023-02-28T09:41:04;3.30;99.90
6843;DHT22;3460;52.028;8.916;2023-02-28T09:43:39;3.10;99.90
6843;DHT22;3460;52.028;8.916;2023-02-28T09:46:14;3.00;99.90
6843;DHT22;3460;52.028;8.916;2023-02-28T09:48:47;3.10;99.90
6843;DHT22;3460;52.028;8.916;2023-02-28T09:51:27;3.30;99.90
6843;DHT22;3460;52.028;8.916;2023-02-28T09:53:56;3.30;99.90
6843;DHT22;3460;52.028;8.916;2023-02-28T09:56:26;3.30;99.90
6843;DHT22;3460;52.028;8.916;2023-02-28T09:58:57;3.40;99.90
6843;DHT22;3460;52.028;8.916;2023-02-28T10:01:29;3.30;99.90
6843;DHT22;3460;52.028;8.916;2023-02-28T10:04:02;3.40;99.90
6843;DHT22;3460;52.028;8.916;2023-02-28T10:06:34;3.40;99.90
6843;DHT22;3460;52.028;8.916;2023-02-28T10:09:05;3.30;99.90
6843;DHT22;3460;52.028;8.916;2023-02-28T10:11:36;3.40;99.90
6843;DHT22;3460;52.028;8.916;2023-02-28T10:14:10;3.30;99.90
6843;DHT22;3460;52.028;8.916;2023-02-28T10:16:43;3.30;99.90
6843;DHT22;3460;52.028;8.916;2023-02-28T10:19:16;3.30;99.90
6843;DHT22;3460;52.028;8.916;2023-02-28T10:21:49;3.50;99.90
6843;DHT22;3460;52.028;8.916;2023-02-28T10:24:23;3.70;99.90
6843;DHT22;3460;52.028;8.916;2023-02-28T10:26:58;3.70;99.90
6843;DHT22;3460;52.028;8.916;2023-02-28T10:29:26;3.90;99.90
6843;DHT22;3460;52.028;8.916;2023-02-28T10:31:53;3.70;99.90
6843;DHT22;3460;52.028;8.916;2023-02-28T10:34:21;3.60;99.90
6843;DHT22;3460;52.028;8.916;2023-02-28T10:36:49;3.70;99.90
6843;DHT22;3460;52.028;8.916;2023-02-28T10:39:39;3.70;99.90
6843;DHT22;3460;52.028;8.916;2023-02-28T10:42:20;3.80;99.90
6843;DHT22;3460;52.028;8.916;2023-02-28T10:44:46;4.00;99.90
6843;DHT22;3460;52.028;8.916;2023-02-28T10:47:16;4.20;99.90
6843;DHT22;3460;52.028;8.916;2023-02-28T10:49:49;4.10;99.90
6843;DHT22;3460;52.028;8.916;2023-02-28T10:52:33;4.10;99.90
6843;DHT22;3460;52.028;8.916;2023-02-28T10:55:20;4.10;99.90
6843;DHT22;3460;52.028;8.916;2023-02-28T10:57:48;3.90;99.90
6843;DHT22;3460;52.028;8.916;2023-02-28T11:00:17;3.90;99.90
6843;DHT22;3460;52.028;8.916;2023-02-28T11:02:45;3.90;99.90
6843;DHT22;3460;52.028;8.916;2023-02-28T11:05:28;4.00;99.90
6843;DHT22;3460;52.028;8.916;2023-02-28T11:07:56;4.20;99.90
6843;DHT22;3460;52.028;8.916;2023-02-28T11:10:26;4.30;99.90
6843;DHT22;3460;52.028;8.916;2023-02-28T11:12:55;4.40;99.90
6843;DHT22;3460;52.028;8.916;2023-02-28T11:15:25;4.50;99.90
6843;DHT22;3460;52.028;8.916;2023-02-28T11:17:54;4.40;99.90
6843;DHT22;3460;52.028;8.916;2023-02-28T11:20:23;4.30;99.90
6843;DHT22;3460;52.028;8.916;2023-02-28T11:22:54;4.50;99.90
6843;DHT22;3460;52.028;8.916;2023-02-28T11:25:25;4.60;99.90
6843;DHT22;3460;52.028;8.916;2023-02-28T11:27:54;4.60;99.90
6843;DHT22;3460;52.028;8.916;2023-02-28T11:30:35;4.50;99.90
6843;DHT22;3460;52.028;8.916;2023-02-28T11:33:22;4.60;99.90
6843;DHT22;3460;52.028;8.916;2023-02-28T11:35:50;4.60;99.90
6843;DHT22;3460;52.028;8.916;2023-02-28T11:38:19;4.70;99.90
6843;DHT22;3460;52.028;8.916;2023-02-28T11:40:50;4.60;99.90
6843;DHT22;3460;52.028;8.916;2023-02-28T11:43:32;4.60;99.90
6843;DHT22;3460;52.028;8.916;2023-02-28T11:46:14;4.60;99.90
6843;DHT22;3460;52.028;8.916;2023-02-28T11:48:50;4.50;99.90
6843;DHT22;3460;52.028;8.916;2023-02-28T11:51:22;4.60;99.90
6843;DHT22;3460;52.028;8.916;2023-02-28T11:56:58;4.50;99.90
6843;DHT22;3460;52.028;8.916;2023-02-28T11:59:45;4.60;99.90
6843;DHT22;3460;52.028;8.916;2023-02-28T12:02:26;4.30;99.90
6843;DHT22;3460;52.028;8.916;2023-02-28T12:05:10;4.20;99.90
6843;DHT22;3460;52.028;8.916;2023-02-28T12:07:45;4.20;99.90
6843;DHT22;3460;52.028;8.916;2023-02-28T12:10:21;4.30;99.90
6843;DHT22;3460;52.028;8.916;2023-02-28T12:12:57;4.30;99.90
6843;DHT22;3460;52.028;8.916;2023-02-28T12:15:43;4.30;99.90
6843;DHT22;3460;52.028;8.916;2023-02-28T12:18:34;4.40;99.90
6843;DHT22;3460;52.028;8.916;2023-02-28T12:21:10;4.50;99.90
6843;DHT22;3460;52.028;8.916;2023-02-28T12:23:57;4.60;99.90
6843;DHT22;3460;52.028;8.916;2023-02-28T12:26:34;4.60;99.90
6843;DHT22;3460;52.028;8.916;2023-02-28T12:29:19;4.50;99.90
6843;DHT22;3460;52.028;8.916;2023-02-28T12:31:51;4.60;99.90
6843;DHT22;3460;52.028;8.916;2023-02-28T12:34:22;4.60;99.90
6843;DHT22;3460;52.028;8.916;2023-02-28T12:36:53;4.60;99.90
6843;DHT22;3460;52.028;8.916;2023-02-28T12:39:26;4.50;99.90
6843;DHT22;3460;52.028;8.916;2023-02-28T12:41:55;4.60;99.90
6843;DHT22;3460;52.028;8.916;2023-02-28T12:44:30;4.70;99.90
6843;DHT22;3460;52.028;8.916;2023-02-28T12:47:01;4.70;99.90
6843;DHT22;3460;52.028;8.916;2023-02-28T12:49:32;4.80;99.90
6843;DHT22;3460;52.028;8.916;2023-02-28T12:52:01;4.90;99.90
6843;DHT22;3460;52.028;8.916;2023-02-28T12:54:31;4.90;99.90
6843;DHT22;3460;52.028;8.916;2023-02-28T12:57:07;4.90;99.90
6843;DHT22;3460;52.028;8.916;2023-02-28T12:59:39;4.90;99.90
6843;DHT22;3460;52.028;8.916;2023-02-28T13:05:23;4.70;99.90
6843;DHT22;3460;52.028;8.916;2023-02-28T13:10:56;4.70;99.90
6843;DHT22;3460;52.028;8.916;2023-02-28T13:13:24;4.70;99.90
6843;DHT22;3460;52.028;8.916;2023-02-28T13:16:02;4.40;99.90
6843;DHT22;3460;52.028;8.916;2023-02-28T13:18:35;4.20;99.90
6843;DHT22;3460;52.028;8.916;2023-02-28T13:21:06;4.20;99.90
6843;DHT22;3460;52.028;8.916;2023-02-28T13:29:31;4.30;99.90
6843;DHT22;3460;52.028;8.916;2023-02-28T13:38:31;4.50;99.90
6843;DHT22;3460;52.028;8.916;2023-02-28T13:44:02;4.40;99.90
6843;DHT22;3460;52.028;8.916;2023-02-28T13:46:30;4.50;99.90
6843;DHT22;3460;52.028;8.916;2023-02-28T13:49:18;4.50;99.90
6843;DHT22;3460;52.028;8.916;2023-02-28T13:51:47;4.60;99.90
6843;DHT22;3460;52.028;8.916;2023-02-28T13:54:27;4.70;99.90
6843;DHT22;3460;52.028;8.916;2023-02-28T13:57:06;4.70;99.90
6843;DHT22;3460;52.028;8.916;2023-02-28T13:59:43;4.70;99.90
6843;DHT22;3460;52.028;8.916;2023-02-28T14:02:41;4.80;99.90
6843;DHT22;3460;52.028;8.916;2023-02-28T14:05:13;4.70;99.90
6843;DHT22;3460;52.028;8.916;2023-02-28T14:07:45;4.90;99.90
6843;DHT22;3460;52.028;8.916;2023-02-28T14:10:24;5.00;99.90
6843;DHT22;3460;52.028;8.916;2023-02-28T14:13:11;5.10;99.90
6843;DHT22;3460;52.028;8.916;2023-02-28T14:15:46;5.00;99.90
6843;DHT22;3460;52.028;8.916;2023-02-28T14:18:20;5.10;99.90
6843;DHT22;3460;52.028;8.916;2023-02-28T14:20:49;5.00;99.90
6843;DHT22;3460;52.028;8.916;2023-02-28T14:23:31;5.10;99.90
6843;DHT22;3460;52.028;8.916;2023-02-28T14:26:09;5.00;99.90
6843;DHT22;3460;52.028;8.916;2023-02-28T14:28:56;5.10;99.90
6843;DHT22;3460;52.028;8.916;2023-02-28T14:31:31;5.00;99.90
6843;DHT22;3460;52.028;8.916;2023-02-28T14:34:13;5.00;99.90
6843;DHT22;3460;52.028;8.916;2023-02-28T14:36:44;4.90;99.90
6843;DHT22;3460;52.028;8.916;2023-02-28T14:39:13;4.90;99.90
6843;DHT22;3460;52.028;8.916;2023-02-28T14:41:43;4.90;99.90
6843;DHT22;3460;52.028;8.916;2023-02-28T14:44:15;4.90;99.90
6843;DHT22;3460;52.028;8.916;2023-02-28T14:46:44;5.00;99.90
6843;DHT22;3460;52.028;8.916;2023-02-28T14:49:16;5.00;99.90
6843;DHT22;3460;52.028;8.916;2023-02-28T14:51:43;4.90;99.90
6843;DHT22;3460;52.028;8.916;2023-02-28T14:54:15;4.90;99.90
6843;DHT22;3460;52.028;8.916;2023-02-28T14:56:44;4.90;99.90
6843;DHT22;3460;52.028;8.916;2023-02-28T14:59:27;4.90;99.90
6843;DHT22;3460;52.028;8.916;2023-02-28T15:02:14;4.90;99.90
6843;DHT22;3460;52.028;8.916;2023-02-28T15:04:41;4.90;99.90
6843;DHT22;3460;52.028;8.916;2023-02-28T15:07:09;4.80;99.90
6843;DHT22;3460;52.028;8.916;2023-02-28T15:09:36;4.90;99.90
6843;DHT22;3460;52.028;8.916;2023-02-28T15:12:05;4.90;99.90
6843;DHT22;3460;52.028;8.916;2023-02-28T15:14:32;5.00;99.90
6843;DHT22;3460;52.028;8.916;2023-02-28T15:17:05;5.00;99.90
6843;DHT22;3460;52.028;8.916;2023-02-28T15:19:36;4.80;99.90
6843;DHT22;3460;52.028;8.916;2023-02-28T15:22:06;4.80;99.90
6843;DHT22;3460;52.028;8.916;2023-02-28T15:24:37;4.80;99.90
6843;DHT22;3460;52.028;8.916;2023-02-28T15:27:09;4.70;99.90
6843;DHT22;3460;52.028;8.916;2023-02-28T15:29:44;4.60;99.90
6843;DHT22;3460;52.028;8.916;2023-02-28T15:32:24;4.70;99.90
6843;DHT22;3460;52.028;8.916;2023-02-28T15:34:52;4.60;99.90
6843;DHT22;3460;52.028;8.916;2023-02-28T15:37:29;4.70;99.90
6843;DHT22;3460;52.028;8.916;2023-02-28T15:40:03;4.60;99.90
6843;DHT22;3460;52.028;8.916;2023-02-28T15:42:33;4.60;99.90
6843;DHT22;3460;52.028;8.916;2023-02-28T15:44:59;4.60;99.90
6843;DHT22;3460;52.028;8.916;2023-02-28T15:47:27;4.60;99.90
6843;DHT22;3460;52.028;8.916;2023-02-28T15:49:57;4.60;99.90
6843;DHT22;3460;52.028;8.916;2023-02-28T15:52:28;4.60;99.90
6843;DHT22;3460;52.028;8.916;2023-02-28T15:54:57;4.60;99.90
6843;DHT22;3460;52.028;8.916;2023-02-28T15:57:26;4.60;99.90
6843;DHT22;3460;52.028;8.916;2023-02-28T15:59:56;4.60;99.90
6843;DHT22;3460;52.028;8.916;2023-02-28T16:02:31;4.50;99.90
6843;DHT22;3460;52.028;8.916;2023-02-28T16:05:01;4.50;99.90
6843;DHT22;3460;52.028;8.916;2023-02-28T16:07:29;4.50;99.90
6843;DHT22;3460;52.028;8.916;2023-02-28T16:09:56;4.40;99.90
6843;DHT22;3460;52.028;8.916;2023-02-28T16:12:26;4.40;99.90
6843;DHT22;3460;52.028;8.916;2023-02-28T16:14:56;4.40;99.90
6843;DHT22;3460;52.028;8.916;2023-02-28T16:17:25;4.40;99.90
6843;DHT22;3460;52.028;8.916;2023-02-28T16:19:53;4.40;99.90
6843;DHT22;3460;52.028;8.916;2023-02-28T16:22:20;4.40;99.90
6843;DHT22;3460;52.028;8.916;2023-02-28T16:24:47;4.30;99.90
6843;DHT22;3460;52.028;8.916;2023-02-28T16:27:17;4.30;99.90
6843;DHT22;3460;52.028;8.916;2023-02-28T16:29:45;4.30;99.90
6843;DHT22;3460;52.028;8.916;2023-02-28T16:32:15;4.20;99.90
6843;DHT22;3460;52.028;8.916;2023-02-28T16:34:43;4.20;99.90
6843;DHT22;3460;52.028;8.916;2023-02-28T16:37:12;4.10;99.90
6843;DHT22;3460;52.028;8.916;2023-02-28T16:39:40;4.10;99.90
6843;DHT22;3460;52.028;8.916;2023-02-28T16:42:11;4.10;99.90
6843;DHT22;3460;52.028;8.916;2023-02-28T16:44:41;4.00;99.90
6843;DHT22;3460;52.028;8.916;2023-02-28T16:47:10;4.00;99.90
6843;DHT22;3460;52.028;8.916;2023-02-28T16:49:38;3.90;99.90
6843;DHT22;3460;52.028;8.916;2023-02-28T16:52:08;3.90;99.90
6843;DHT22;3460;52.028;8.916;2023-02-28T16:54:35;3.90;99.90
6843;DHT22;3460;52.028;8.916;2023-02-28T16:57:02;3.80;99.90
6843;DHT22;3460;52.028;8.916;2023-02-28T16:59:29;3.70;99.90
6843;DHT22;3460;52.028;8.916;2023-02-28T17:01:56;3.60;99.90